sensor_id;sensor_type;location;lat;lon;timestamp;pressure;altitude;pressure_sealevel;temperature;humidity
7966;BME280;4028;43.272;26.932;2024-01-30T00:00:41;101394.72;;;1.02;100.00
7966;BME280;4028;43.272;26.932;2024-01-30T00:03:06;101337.38;;;0.55;100.00
7966;BME280;4028;43.272;26.932;2024-01-30T00:05:31;101395.59;;;1.01;100.00
7966;BME280;4028;43.272;26.932;2024-01-30T00:07:57;101406.84;;;1.05;100.00
7966;BME280;4028;43.272;26.932;2024-01-30T00:10:22;101403.31;;;1.08;100.00
7966;BME280;4028;43.272;26.932;2024-01-30T00:12:48;101397.41;;;0.98;100.00
7966;BME280;4028;43.272;26.932;2024-01-30T00:15:13;101388.66;;;1.00;100.00
7966;BME280;4028;43.272;26.932;2024-01-30T00:17:39;101403.50;;;0.97;100.00
7966;BME280;4028;43.272;26.932;2024-01-30T00:20:05;101400.78;;;1.04;100.00
7966;BME280;4028;43.272;26.932;2024-01-30T00:22:34;101398.81;;;1.16;100.00
7966;BME280;4028;43.272;26.932;2024-01-30T00:24:59;101397.97;;;1.15;100.00
7966;BME280;4028;43.272;26.932;2024-01-30T00:27:25;101394.56;;;1.10;100.00
7966;BME280;4028;43.272;26.932;2024-01-30T00:29:51;101400.13;;;0.92;100.00
7966;BME280;4028;43.272;26.932;2024-01-30T00:32:17;101400.19;;;0.89;100.00
7966;BME280;4028;43.272;26.932;2024-01-30T00:34:44;101406.25;;;0.89;100.00
7966;BME280;4028;43.272;26.932;2024-01-30T00:37:09;101396.72;;;0.88;100.00
7966;BME280;4028;43.272;26.932;2024-01-30T00:39:35;101397.53;;;0.90;100.00
7966;BME280;4028;43.272;26.932;2024-01-30T00:42:01;101393.00;;;1.01;100.00
7966;BME280;4028;43.272;26.932;2024-01-30T00:44:27;101379.22;;;0.95;100.00
7966;BME280;4028;43.272;26.932;2024-01-30T00:46:53;101401.50;;;1.11;100.00
7966;BME280;4028;43.272;26.932;2024-01-30T00:49:19;101397.19;;;1.10;100.00
7966;BME280;4028;43.272;26.932;2024-01-30T00:51:45;101394.81;;;0.96;100.00
7966;BME280;4028;43.272;26.932;2024-01-30T00:54:11;101400.19;;;0.89;100.00
7966;BME280;4028;43.272;26.932;2024-01-30T00:56:36;101394.03;;;0.93;100.00
7966;BME280;4028;43.272;26.932;2024-01-30T00:59:02;101399.41;;;0.84;100.00
7966;BME280;4028;43.272;26.932;2024-01-30T01:01:27;101393.47;;;0.75;100.00
7966;BME280;4028;43.272;26.932;2024-01-30T01:03:53;101393.38;;;0.80;100.00
7966;BME280;4028;43.272;26.932;2024-01-30T01:06:18;101382.97;;;0.80;100.00
7966;BME280;4028;43.272;26.932;2024-01-30T01:08:44;101386.50;;;0.76;100.00
7966;BME280;4028;43.272;26.932;2024-01-30T01:11:09;101388.13;;;0.82;100.00
7966;BME280;4028;43.272;26.932;2024-01-30T01:13:35;101381.09;;;0.88;100.00
7966;BME280;4028;43.272;26.932;2024-01-30T01:16:00;101383.69;;;0.87;100.00
7966;BME280;4028;43.272;26.932;2024-01-30T01:18:26;101373.72;;;1.10;100.00
7966;BME280;4028;43.272;26.932;2024-01-30T01:20:52;101373.97;;;0.98;100.00
7966;BME280;4028;43.272;26.932;2024-01-30T01:23:17;101377.09;;;0.69;100.00
7966;BME280;4028;43.272;26.932;2024-01-30T01:25:44;101375.56;;;0.56;100.00
7966;BME280;4028;43.272;26.932;2024-01-30T01:28:09;101352.44;;;0.37;100.00
7966;BME280;4028;43.272;26.932;2024-01-30T01:30:35;101382.25;;;0.72;100.00
7966;BME280;4028;43.272;26.932;2024-01-30T01:33:00;101381.22;;;0.81;100.00
7966;BME280;4028;43.272;26.932;2024-01-30T01:35:27;101340.63;;;0.67;100.00
7966;BME280;4028;43.272;26.932;2024-01-30T01:37:54;101378.56;;;0.84;100.00
7966;BME280;4028;43.272;26.932;2024-01-30T01:40:25;101386.47;;;0.79;100.00
7966;BME280;4028;43.272;26.932;2024-01-30T01:42:51;101376.16;;;0.73;100.00
7966;BME280;4028;43.272;26.932;2024-01-30T01:45:20;101368.38;;;0.70;100.00
7966;BME280;4028;43.272;26.932;2024-01-30T01:47:47;101374.47;;;0.69;100.00
7966;BME280;4028;43.272;26.932;2024-01-30T01:50:15;101373.66;;;0.67;100.00
7966;BME280;4028;43.272;26.932;2024-01-30T01:52:44;101371.06;;;0.65;100.00
7966;BME280;4028;43.272;26.932;2024-01-30T01:55:11;101380.69;;;0.62;100.00
7966;BME280;4028;43.272;26.932;2024-01-30T01:57:37;101373.81;;;0.58;100.00
7966;BME280;4028;43.272;26.932;2024-01-30T02:00:03;101372.00;;;0.61;100.00
7966;BME280;4028;43.272;26.932;2024-01-30T02:02:35;101384.63;;;0.84;100.00
7966;BME280;4028;43.272;26.932;2024-01-30T02:05:01;101383.00;;;0.78;100.00
7966;BME280;4028;43.272;26.932;2024-01-30T02:07:27;101359.06;;;0.55;100.00
7966;BME280;4028;43.272;26.932;2024-01-30T02:09:54;101383.00;;;0.78;100.00
7966;BME280;4028;43.272;26.932;2024-01-30T02:12:20;101376.81;;;0.84;100.00
7966;BME280;4028;43.272;26.932;2024-01-30T02:14:46;101376.75;;;0.87;100.00
7966;BME280;4028;43.272;26.932;2024-01-30T02:17:12;101375.19;;;0.78;100.00
7966;BME280;4028;43.272;26.932;2024-01-30T02:19:39;101333.16;;;0.47;100.00
7966;BME280;4028;43.272;26.932;2024-01-30T02:22:04;101371.63;;;0.83;100.00
7966;BME280;4028;43.272;26.932;2024-01-30T02:24:30;101369.97;;;0.78;100.00
7966;BME280;4028;43.272;26.932;2024-01-30T02:26:56;101363.38;;;0.56;100.00
7966;BME280;4028;43.272;26.932;2024-01-30T02:29:21;101372.16;;;0.52;100.00
7966;BME280;4028;43.272;26.932;2024-01-30T02:31:47;101374.66;;;0.58;100.00
7966;BME280;4028;43.272;26.932;2024-01-30T02:34:13;101370.19;;;0.65;100.00
7966;BME280;4028;43.272;26.932;2024-01-30T02:36:38;101366.78;;;0.63;100.00
7966;BME280;4028;43.272;26.932;2024-01-30T02:39:04;101362.19;;;0.75;100.00
7966;BME280;4028;43.272;26.932;2024-01-30T02:41:30;101354.63;;;0.62;100.00
7966;BME280;4028;43.272;26.932;2024-01-30T02:43:55;101356.13;;;0.75;100.00
7966;BME280;4028;43.272;26.932;2024-01-30T02:46:21;101356.28;;;0.66;100.00
7966;BME280;4028;43.272;26.932;2024-01-30T02:48:47;101350.09;;;0.71;100.00
7966;BME280;4028;43.272;26.932;2024-01-30T02:51:12;101359.72;;;0.68;100.00
7966;BME280;4028;43.272;26.932;2024-01-30T02:53:38;101361.25;;;0.80;100.00
7966;BME280;4028;43.272;26.932;2024-01-30T02:56:03;101353.13;;;0.48;100.00
7966;BME280;4028;43.272;26.932;2024-01-30T02:58:31;101357.31;;;0.57;100.00
7966;BME280;4028;43.272;26.932;2024-01-30T03:00:56;101361.31;;;0.75;100.00
7966;BME280;4028;43.272;26.932;2024-01-30T03:03:22;101356.19;;;0.70;100.00
7966;BME280;4028;43.272;26.932;2024-01-30T03:05:47;101334.03;;;0.48;100.00
7966;BME280;4028;43.272;26.932;2024-01-30T03:08:13;101370.38;;;0.54;100.00
7966;BME280;4028;43.272;26.932;2024-01-30T03:10:38;101366.72;;;0.64;100.00
7966;BME280;4028;43.272;26.932;2024-01-30T03:13:04;101357.13;;;0.66;100.00
7966;BME280;4028;43.272;26.932;2024-01-30T03:15:29;101369.09;;;0.78;100.00
7966;BME280;4028;43.272;26.932;2024-01-30T03:17:55;101375.22;;;0.77;100.00
7966;BME280;4028;43.272;26.932;2024-01-30T03:20:20;101365.75;;;0.70;100.00
7966;BME280;4028;43.272;26.932;2024-01-30T03:22:46;101365.59;;;0.79;100.00
7966;BME280;4028;43.272;26.932;2024-01-30T03:25:11;101343.03;;;0.76;100.00
7966;BME280;4028;43.272;26.932;2024-01-30T03:27:37;101355.13;;;0.82;100.00
7966;BME280;4028;43.272;26.932;2024-01-30T03:30:02;101357.66;;;0.85;100.00
7966;BME280;4028;43.272;26.932;2024-01-30T03:32:28;101353.66;;;0.66;100.00
7966;BME280;4028;43.272;26.932;2024-01-30T03:34:53;101362.34;;;0.66;100.00
7966;BME280;4028;43.272;26.932;2024-01-30T03:37:19;101364.72;;;0.80;100.00
7966;BME280;4028;43.272;26.932;2024-01-30T03:39:44;101361.16;;;0.84;100.00
7966;BME280;4028;43.272;26.932;2024-01-30T03:42:10;101342.06;;;0.84;100.00
7966;BME280;4028;43.272;26.932;2024-01-30T03:44:35;101334.28;;;0.81;100.00
7966;BME280;4028;43.272;26.932;2024-01-30T03:47:01;101321.34;;;0.76;100.00
7966;BME280;4028;43.272;26.932;2024-01-30T03:49:26;101335.84;;;0.91;100.00
7966;BME280;4028;43.272;26.932;2024-01-30T03:51:52;101322.31;;;0.72;100.00
7966;BME280;4028;43.272;26.932;2024-01-30T03:54:17;101284.50;;;0.49;100.00
7966;BME280;4028;43.272;26.932;2024-01-30T03:56:42;101302.56;;;0.59;100.00
7966;BME280;4028;43.272;26.932;2024-01-30T03:59:08;101323.91;;;0.79;100.00
7966;BME280;4028;43.272;26.932;2024-01-30T04:01:33;101329.84;;;0.87;100.00
7966;BME280;4028;43.272;26.932;2024-01-30T04:03:59;101299.84;;;0.65;100.00
7966;BME280;4028;43.272;26.932;2024-01-30T04:06:24;101317.16;;;0.69;100.00
7966;BME280;4028;43.272;26.932;2024-01-30T04:08:50;101323.25;;;0.68;100.00
7966;BME280;4028;43.272;26.932;2024-01-30T04:11:18;101290.69;;;0.44;100.00
7966;BME280;4028;43.272;26.932;2024-01-30T04:13:44;101323.53;;;0.51;100.00
7966;BME280;4028;43.272;26.932;2024-01-30T04:16:22;101310.63;;;0.46;100.00
7966;BME280;4028;43.272;26.932;2024-01-30T04:18:48;101314.84;;;0.52;100.00
7966;BME280;4028;43.272;26.932;2024-01-30T04:21:13;101330.34;;;0.60;100.00
7966;BME280;4028;43.272;26.932;2024-01-30T04:23:40;101326.06;;;0.57;100.00
7966;BME280;4028;43.272;26.932;2024-01-30T04:26:06;101327.69;;;0.61;100.00
7966;BME280;4028;43.272;26.932;2024-01-30T04:28:31;101332.94;;;0.60;100.00
7966;BME280;4028;43.272;26.932;2024-01-30T04:30:57;101337.25;;;0.61;100.00
7966;BME280;4028;43.272;26.932;2024-01-30T04:33:22;101323.50;;;0.54;100.00
7966;BME280;4028;43.272;26.932;2024-01-30T04:35:48;101332.09;;;0.59;100.00
7966;BME280;4028;43.272;26.932;2024-01-30T04:38:13;101219.56;;;-0.09;100.00
7966;BME280;4028;43.272;26.932;2024-01-30T04:40:40;101324.06;;;0.70;100.00
7966;BME280;4028;43.272;26.932;2024-01-30T04:43:05;101332.91;;;0.63;100.00
7966;BME280;4028;43.272;26.932;2024-01-30T04:45:31;101332.13;;;0.56;100.00
7966;BME280;4028;43.272;26.932;2024-01-30T04:47:57;101338.16;;;0.60;100.00
7966;BME280;4028;43.272;26.932;2024-01-30T04:50:23;101336.97;;;0.76;100.00
7966;BME280;4028;43.272;26.932;2024-01-30T04:52:49;101336.34;;;0.63;100.00
7966;BME280;4028;43.272;26.932;2024-01-30T04:55:14;101317.31;;;0.60;100.00
7966;BME280;4028;43.272;26.932;2024-01-30T04:57:40;101333.84;;;0.59;100.00
7966;BME280;4028;43.272;26.932;2024-01-30T05:00:06;101329.75;;;0.44;100.00
7966;BME280;4028;43.272;26.932;2024-01-30T05:02:32;101333.78;;;0.60;100.00
7966;BME280;4028;43.272;26.932;2024-01-30T05:04:57;101316.75;;;0.42;100.00
7966;BME280;4028;43.272;26.932;2024-01-30T05:07:24;101343.19;;;0.69;100.00
7966;BME280;4028;43.272;26.932;2024-01-30T05:09:50;101342.38;;;0.67;100.00
7966;BME280;4028;43.272;26.932;2024-01-30T05:12:16;101351.03;;;0.69;100.00
7966;BME280;4028;43.272;26.932;2024-01-30T05:14:41;101361.41;;;0.72;100.00
7966;BME280;4028;43.272;26.932;2024-01-30T05:17:06;101360.47;;;0.74;100.00
7966;BME280;4028;43.272;26.932;2024-01-30T05:19:34;101327.66;;;0.64;100.00
7966;BME280;4028;43.272;26.932;2024-01-30T05:22:00;101362.41;;;0.63;100.00
7966;BME280;4028;43.272;26.932;2024-01-30T05:24:25;101356.28;;;0.66;100.00
7966;BME280;4028;43.272;26.932;2024-01-30T05:26:50;101351.88;;;0.69;100.00
7966;BME280;4028;43.272;26.932;2024-01-30T05:29:16;101360.44;;;0.77;100.00
7966;BME280;4028;43.272;26.932;2024-01-30T05:31:45;101346.09;;;0.54;100.00
7966;BME280;4028;43.272;26.932;2024-01-30T05:34:10;101337.53;;;0.45;100.00
7966;BME280;4028;43.272;26.932;2024-01-30T05:36:36;101373.94;;;0.50;100.00
7966;BME280;4028;43.272;26.932;2024-01-30T05:39:01;101362.53;;;0.57;100.00
7966;BME280;4028;43.272;26.932;2024-01-30T05:41:27;101376.97;;;0.75;100.00
7966;BME280;4028;43.272;26.932;2024-01-30T05:43:52;101353.22;;;0.42;100.00
7966;BME280;4028;43.272;26.932;2024-01-30T05:46:18;101377.19;;;0.63;100.00
7966;BME280;4028;43.272;26.932;2024-01-30T05:48:43;101381.38;;;0.71;100.00
7966;BME280;4028;43.272;26.932;2024-01-30T05:51:09;101384.09;;;0.65;100.00
7966;BME280;4028;43.272;26.932;2024-01-30T05:53:34;101312.72;;;0.26;100.00
7966;BME280;4028;43.272;26.932;2024-01-30T05:56:03;101387.34;;;0.78;100.00
7966;BME280;4028;43.272;26.932;2024-01-30T05:58:29;101386.66;;;0.68;100.00
7966;BME280;4028;43.272;26.932;2024-01-30T06:00:54;101385.63;;;0.77;100.00
7966;BME280;4028;43.272;26.932;2024-01-30T06:03:20;101381.13;;;0.85;100.00
7966;BME280;4028;43.272;26.932;2024-01-30T06:05:46;101376.69;;;0.90;100.00
7966;BME280;4028;43.272;26.932;2024-01-30T06:08:11;101326.09;;;0.54;100.00
7966;BME280;4028;43.272;26.932;2024-01-30T06:10:37;101397.72;;;0.81;100.00
7966;BME280;4028;43.272;26.932;2024-01-30T06:13:02;101388.78;;;0.94;100.00
7966;BME280;4028;43.272;26.932;2024-01-30T06:15:28;101375.88;;;0.87;100.00
7966;BME280;4028;43.272;26.932;2024-01-30T06:17:55;101395.00;;;0.87;100.00
7966;BME280;4028;43.272;26.932;2024-01-30T06:20:20;101401.81;;;0.94;100.00
7966;BME280;4028;43.272;26.932;2024-01-30T06:22:46;101404.44;;;0.94;100.00
7966;BME280;4028;43.272;26.932;2024-01-30T06:25:11;101402.84;;;0.86;100.00
7966;BME280;4028;43.272;26.932;2024-01-30T06:27:37;101398.56;;;0.83;100.00
7966;BME280;4028;43.272;26.932;2024-01-30T06:30:04;101407.97;;;0.90;100.00
7966;BME280;4028;43.272;26.932;2024-01-30T06:32:30;101409.81;;;0.85;100.00
7966;BME280;4028;43.272;26.932;2024-01-30T06:34:59;101409.75;;;0.88;100.00
7966;BME280;4028;43.272;26.932;2024-01-30T06:37:25;101412.41;;;0.85;100.00
7966;BME280;4028;43.272;26.932;2024-01-30T06:39:50;101416.88;;;0.78;100.00
7966;BME280;4028;43.272;26.932;2024-01-30T06:42:17;101423.81;;;0.80;100.00
7966;BME280;4028;43.272;26.932;2024-01-30T06:44:43;101421.50;;;0.63;100.00
7966;BME280;4028;43.272;26.932;2024-01-30T06:47:08;101427.34;;;0.77;100.00
7966;BME280;4028;43.272;26.932;2024-01-30T06:49:34;101434.34;;;0.73;100.00
7966;BME280;4028;43.272;26.932;2024-01-30T06:52:00;101433.22;;;0.88;100.00
7966;BME280;4028;43.272;26.932;2024-01-30T06:54:25;101432.22;;;0.95;100.00
7966;BME280;4028;43.272;26.932;2024-01-30T06:56:50;101429.72;;;0.89;100.00
7966;BME280;4028;43.272;26.932;2024-01-30T06:59:16;101428.19;;;0.77;100.00
7966;BME280;4028;43.272;26.932;2024-01-30T07:01:41;101429.91;;;0.78;100.00
7966;BME280;4028;43.272;26.932;2024-01-30T07:04:07;101433.38;;;0.79;100.00
7966;BME280;4028;43.272;26.932;2024-01-30T07:06:32;101428.88;;;0.89;100.00
7966;BME280;4028;43.272;26.932;2024-01-30T07:08:58;101433.94;;;0.96;100.00
7966;BME280;4028;43.272;26.932;2024-01-30T07:11:23;101408.81;;;0.92;100.00
7966;BME280;4028;43.272;26.932;2024-01-30T07:13:52;101399.41;;;0.84;100.00
7966;BME280;4028;43.272;26.932;2024-01-30T07:16:17;101421.66;;;1.01;100.00
7966;BME280;4028;43.272;26.932;2024-01-30T07:18:43;101411.94;;;1.11;100.00
7966;BME280;4028;43.272;26.932;2024-01-30T07:21:09;101412.88;;;1.07;100.00
7966;BME280;4028;43.272;26.932;2024-01-30T07:23:35;101419.72;;;1.14;100.00
7966;BME280;4028;43.272;26.932;2024-01-30T07:26:07;101413.47;;;1.21;100.00
7966;BME280;4028;43.272;26.932;2024-01-30T07:28:34;101359.34;;;0.89;100.00
7966;BME280;4028;43.272;26.932;2024-01-30T07:31:00;101408.38;;;1.15;100.00
7966;BME280;4028;43.272;26.932;2024-01-30T07:33:25;101403.91;;;1.22;100.00
7966;BME280;4028;43.272;26.932;2024-01-30T07:35:53;101411.63;;;1.28;100.00
7966;BME280;4028;43.272;26.932;2024-01-30T07:38:19;101405.75;;;1.17;100.00
7966;BME280;4028;43.272;26.932;2024-01-30T07:40:44;101411.50;;;1.33;100.00
7966;BME280;4028;43.272;26.932;2024-01-30T07:43:10;101409.59;;;1.42;100.00
7966;BME280;4028;43.272;26.932;2024-01-30T07:45:35;101409.53;;;1.45;100.00
7966;BME280;4028;43.272;26.932;2024-01-30T07:48:02;101382.13;;;1.24;100.00
7966;BME280;4028;43.272;26.932;2024-01-30T07:50:28;101405.91;;;1.54;100.00
7966;BME280;4028;43.272;26.932;2024-01-30T07:52:55;101417.88;;;1.63;100.00
7966;BME280;4028;43.272;26.932;2024-01-30T07:55:21;101364.31;;;1.01;100.00
7966;BME280;4028;43.272;26.932;2024-01-30T07:57:51;101430.25;;;1.53;100.00
7966;BME280;4028;43.272;26.932;2024-01-30T08:00:18;101427.72;;;1.50;100.00
7966;BME280;4028;43.272;26.932;2024-01-30T08:02:44;101392.44;;;1.30;100.00
7966;BME280;4028;43.272;26.932;2024-01-30T08:05:09;101421.56;;;1.52;100.00
7966;BME280;4028;43.272;26.932;2024-01-30T08:07:37;101396.06;;;1.23;100.00
7966;BME280;4028;43.272;26.932;2024-01-30T08:10:02;101412.97;;;1.47;100.00
7966;BME280;4028;43.272;26.932;2024-01-30T08:12:28;101414.63;;;1.51;100.00
7966;BME280;4028;43.272;26.932;2024-01-30T08:14:54;101414.97;;;1.35;100.00
7966;BME280;4028;43.272;26.932;2024-01-30T08:17:19;101410.78;;;1.26;100.00
7966;BME280;4028;43.272;26.932;2024-01-30T08:19:45;101406.44;;;1.26;100.00
7966;BME280;4028;43.272;26.932;2024-01-30T08:22:12;101417.38;;;1.45;100.00
7966;BME280;4028;43.272;26.932;2024-01-30T08:24:37;101411.31;;;1.43;100.00
7966;BME280;4028;43.272;26.932;2024-01-30T08:27:03;101417.50;;;1.38;100.00
7966;BME280;4028;43.272;26.932;2024-01-30T08:29:30;101414.13;;;1.33;100.00
7966;BME280;4028;43.272;26.932;2024-01-30T08:31:55;101421.81;;;1.40;100.00
7966;BME280;4028;43.272;26.932;2024-01-30T08:34:21;101426.13;;;1.41;100.00
7966;BME280;4028;43.272;26.932;2024-01-30T08:36:46;101427.72;;;1.48;100.00
7966;BME280;4028;43.272;26.932;2024-01-30T08:39:13;101424.13;;;1.55;100.00
7966;BME280;4028;43.272;26.932;2024-01-30T08:41:38;101420.34;;;1.69;100.00
7966;BME280;4028;43.272;26.932;2024-01-30T08:44:04;101423.75;;;1.72;100.00
7966;BME280;4028;43.272;26.932;2024-01-30T08:46:30;101416.06;;;1.66;100.00
7966;BME280;4028;43.272;26.932;2024-01-30T08:48:56;101418.91;;;1.55;100.00
7966;BME280;4028;43.272;26.932;2024-01-30T08:51:21;101420.56;;;1.58;100.00
7966;BME280;4028;43.272;26.932;2024-01-30T08:53:47;101410.19;;;1.56;100.00
7966;BME280;4028;43.272;26.932;2024-01-30T08:56:13;101421.72;;;1.45;100.00
7966;BME280;4028;43.272;26.932;2024-01-30T08:58:39;101424.31;;;1.46;100.00
7966;BME280;4028;43.272;26.932;2024-01-30T09:01:05;101426.84;;;1.49;100.00
7966;BME280;4028;43.272;26.932;2024-01-30T09:03:31;101428.56;;;1.50;100.00
7966;BME280;4028;43.272;26.932;2024-01-30T09:05:56;101439.06;;;1.47;100.00
7966;BME280;4028;43.272;26.932;2024-01-30T09:08:22;101424.38;;;1.42;100.00
7966;BME280;4028;43.272;26.932;2024-01-30T09:10:47;101414.03;;;1.37;100.00
7966;BME280;4028;43.272;26.932;2024-01-30T09:13:15;101431.09;;;1.55;100.00
7966;BME280;4028;43.272;26.932;2024-01-30T09:15:41;101411.31;;;1.43;100.00
7966;BME280;4028;43.272;26.932;2024-01-30T09:18:07;101402.25;;;1.61;100.00
7966;BME280;4028;43.272;26.932;2024-01-30T09:20:32;101424.59;;;1.74;100.00
7966;BME280;4028;43.272;26.932;2024-01-30T09:22:58;101430.25;;;1.95;100.00
7966;BME280;4028;43.272;26.932;2024-01-30T09:25:23;101423.28;;;1.95;100.00
7966;BME280;4028;43.272;26.932;2024-01-30T09:27:49;101431.78;;;2.05;100.00
7966;BME280;4028;43.272;26.932;2024-01-30T09:30:14;101419.88;;;1.92;100.00
7966;BME280;4028;43.272;26.932;2024-01-30T09:32:40;101419.34;;;2.15;100.00
7966;BME280;4028;43.272;26.932;2024-01-30T09:35:06;101414.72;;;2.27;100.00
7966;BME280;4028;43.272;26.932;2024-01-30T09:37:31;101420.19;;;2.17;100.00
7966;BME280;4028;43.272;26.932;2024-01-30T09:39:57;101391.09;;;1.95;100.00
7966;BME280;4028;43.272;26.932;2024-01-30T09:42:34;101406.47;;;2.07;100.00
7966;BME280;4028;43.272;26.932;2024-01-30T09:45:02;101407.03;;;2.21;100.00
7966;BME280;4028;43.272;26.932;2024-01-30T09:47:31;101404.81;;;2.40;100.00
7966;BME280;4028;43.272;26.932;2024-01-30T09:49:58;101407.63;;;2.68;100.00
7966;BME280;4028;43.272;26.932;2024-01-30T09:52:24;101412.63;;;2.76;100.00
7966;BME280;4028;43.272;26.932;2024-01-30T09:54:51;101397.72;;;3.13;100.00
7966;BME280;4028;43.272;26.932;2024-01-30T09:57:17;101394.13;;;3.49;100.00
7966;BME280;4028;43.272;26.932;2024-01-30T09:59:43;101385.69;;;3.97;100.00
7966;BME280;4028;43.272;26.932;2024-01-30T10:02:09;101383.47;;;4.39;100.00
7966;BME280;4028;43.272;26.932;2024-01-30T10:04:35;101382.88;;;4.57;100.00
7966;BME280;4028;43.272;26.932;2024-01-30T10:07:04;101370.91;;;4.22;100.00
7966;BME280;4028;43.272;26.932;2024-01-30T10:09:32;101347.75;;;4.08;100.00
7966;BME280;4028;43.272;26.932;2024-01-30T10:11:58;101367.63;;;4.68;100.00
7966;BME280;4028;43.272;26.932;2024-01-30T10:14:24;101368.69;;;4.63;100.00
7966;BME280;4028;43.272;26.932;2024-01-30T10:16:50;101363.75;;;4.27;100.00
7966;BME280;4028;43.272;26.932;2024-01-30T10:19:16;101362.78;;;4.03;100.00
7966;BME280;4028;43.272;26.932;2024-01-30T10:21:41;101351.75;;;4.73;100.00
7966;BME280;4028;43.272;26.932;2024-01-30T10:24:07;101348.25;;;5.22;100.00
7966;BME280;4028;43.272;26.932;2024-01-30T10:26:32;101346.19;;;5.54;100.00
7966;BME280;4028;43.272;26.932;2024-01-30T10:28:59;101353.59;;;5.66;100.00
7966;BME280;4028;43.272;26.932;2024-01-30T10:31:25;101345.69;;;5.66;100.00
7966;BME280;4028;43.272;26.932;2024-01-30T10:33:50;101349.31;;;5.40;100.00
7966;BME280;4028;43.272;26.932;2024-01-30T10:36:17;101343.09;;;5.43;100.00
7966;BME280;4028;43.272;26.932;2024-01-30T10:38:44;101339.91;;;5.35;100.00
7966;BME280;4028;43.272;26.932;2024-01-30T10:41:12;101338.63;;;5.21;100.00
7966;BME280;4028;43.272;26.932;2024-01-30T10:43:49;101330.31;;;4.85;100.00
7966;BME280;4028;43.272;26.932;2024-01-30T10:46:20;101339.31;;;4.53;100.00
7966;BME280;4028;43.272;26.932;2024-01-30T10:48:50;101336.91;;;4.72;100.00
7966;BME280;4028;43.272;26.932;2024-01-30T10:51:20;101334.22;;;4.74;100.00
7966;BME280;4028;43.272;26.932;2024-01-30T10:53:49;101338.84;;;4.67;100.00
7966;BME280;4028;43.272;26.932;2024-01-30T10:56:16;101332.66;;;4.43;100.00
7966;BME280;4028;43.272;26.932;2024-01-30T10:58:41;101336.09;;;4.70;100.00
7966;BME280;4028;43.272;26.932;2024-01-30T11:01:07;101336.94;;;4.70;100.00
7966;BME280;4028;43.272;26.932;2024-01-30T11:03:34;101325.03;;;4.62;100.00
7966;BME280;4028;43.272;26.932;2024-01-30T11:06:02;101330.97;;;4.67;100.00
7966;BME280;4028;43.272;26.932;2024-01-30T11:08:28;101328.22;;;4.70;100.00
7966;BME280;4028;43.272;26.932;2024-01-30T11:10:58;101329.13;;;4.94;100.00
7966;BME280;4028;43.272;26.932;2024-01-30T11:13:30;101327.31;;;4.96;100.00
7966;BME280;4028;43.272;26.932;2024-01-30T11:16:00;101325.19;;;4.82;100.00
7966;BME280;4028;43.272;26.932;2024-01-30T11:18:29;101326.59;;;4.67;100.00
7966;BME280;4028;43.272;26.932;2024-01-30T11:20:58;101328.53;;;4.36;100.00
7966;BME280;4028;43.272;26.932;2024-01-30T11:23:26;101310.84;;;4.42;100.00
7966;BME280;4028;43.272;26.932;2024-01-30T11:25:53;101301.91;;;4.48;100.00
7966;BME280;4028;43.272;26.932;2024-01-30T11:28:18;101314.78;;;4.54;100.00
7966;BME280;4028;43.272;26.932;2024-01-30T11:30:46;101300.34;;;4.67;100.00
7966;BME280;4028;43.272;26.932;2024-01-30T11:33:13;101276.72;;;3.91;100.00
7966;BME280;4028;43.272;26.932;2024-01-30T11:35:44;101310.00;;;4.15;100.00
7966;BME280;4028;43.272;26.932;2024-01-30T11:38:11;101303.28;;;4.07;100.00
7966;BME280;4028;43.272;26.932;2024-01-30T11:40:39;101299.22;;;3.70;100.00
7966;BME280;4028;43.272;26.932;2024-01-30T11:43:06;101293.59;;;3.82;100.00
7966;BME280;4028;43.272;26.932;2024-01-30T11:45:34;101294.63;;;3.77;100.00
7966;BME280;4028;43.272;26.932;2024-01-30T11:48:00;101310.44;;;3.46;100.00
7966;BME280;4028;43.272;26.932;2024-01-30T11:50:38;101299.31;;;3.37;100.00
7966;BME280;4028;43.272;26.932;2024-01-30T11:53:04;101307.50;;;3.56;100.00
7966;BME280;4028;43.272;26.932;2024-01-30T11:55:30;101298.25;;;3.45;100.00
7966;BME280;4028;43.272;26.932;2024-01-30T11:57:59;101299.03;;;3.48;100.00
7966;BME280;4028;43.272;26.932;2024-01-30T12:00:25;101286.78;;;3.49;100.00
7966;BME280;4028;43.272;26.932;2024-01-30T12:02:54;101291.06;;;3.51;100.00
7966;BME280;4028;43.272;26.932;2024-01-30T12:05:26;101290.16;;;3.52;100.00
7966;BME280;4028;43.272;26.932;2024-01-30T12:07:52;101295.91;;;3.35;100.00
7966;BME280;4028;43.272;26.932;2024-01-30T12:10:18;101290.16;;;3.52;100.00
7966;BME280;4028;43.272;26.932;2024-01-30T12:12:46;101288.03;;;3.65;100.00
7966;BME280;4028;43.272;26.932;2024-01-30T12:15:12;101294.91;;;3.68;100.00
7966;BME280;4028;43.272;26.932;2024-01-30T12:17:38;101277.19;;;3.49;100.00
7966;BME280;4028;43.272;26.932;2024-01-30T12:20:14;101278.34;;;3.39;100.00
7966;BME280;4028;43.272;26.932;2024-01-30T12:25:11;101286.06;;;3.72;100.00
7966;BME280;4028;43.272;26.932;2024-01-30T12:27:37;101266.25;;;3.63;100.00
7966;BME280;4028;43.272;26.932;2024-01-30T12:30:07;101282.97;;;3.87;100.00
7966;BME280;4028;43.272;26.932;2024-01-30T12:32:51;101286.69;;;3.80;100.00
7966;BME280;4028;43.272;26.932;2024-01-30T12:35:18;101286.22;;;3.94;100.00
7966;BME280;4028;43.272;26.932;2024-01-30T12:37:45;101280.50;;;3.82;100.00
7966;BME280;4028;43.272;26.932;2024-01-30T12:40:12;101275.66;;;3.97;100.00
7966;BME280;4028;43.272;26.932;2024-01-30T12:42:43;101269.78;;;3.90;100.00
7966;BME280;4028;43.272;26.932;2024-01-30T12:45:11;101274.81;;;3.96;100.00
7966;BME280;4028;43.272;26.932;2024-01-30T12:47:37;101278.50;;;3.90;100.00
7966;BME280;4028;43.272;26.932;2024-01-30T12:50:02;101273.59;;;3.52;100.00
7966;BME280;4028;43.272;26.932;2024-01-30T12:52:28;101276.25;;;3.50;100.00
7966;BME280;4028;43.272;26.932;2024-01-30T12:54:54;101272.84;;;3.48;100.00
7966;BME280;4028;43.272;26.932;2024-01-30T12:57:20;101283.31;;;3.48;100.00